Time,TemperatureF,DewpointF,PressureIn,WindDirection,WindDirectionDegrees,WindSpeedMPH,WindSpeedGustMPH,Humidity,HourlyPrecipIn,Conditions,Clouds,dailyrainin,SoftwareType,DateUTC
2013-02-28 00:01:00,38.0,19.0,-100.00,NNE,15,4.0,9.0,46,0.00,,,0.00,,2013-02-28 00:01:00,
2013-02-28 00:11:00,37.0,19.0,-100.00,NNE,15,4.0,7.0,47,0.00,,,0.00,,2013-02-28 00:11:00,
2013-02-28 00:21:00,36.0,19.0,-100.00,North,10,2.0,7.0,50,0.00,,,0.00,,2013-02-28 00:21:00,
2013-02-28 00:32:00,33.0,21.0,-100.00,East,80,2.0,5.0,62,0.00,,,0.00,,2013-02-28 00:32:00,
2013-02-28 00:42:00,31.0,21.0,-100.00,East,80,2.0,4.0,68,0.00,,,0.00,,2013-02-28 00:42:00,
2013-02-28 00:51:00,30.0,21.0,-100.00,ENE,60,1.0,5.0,70,0.00,,,0.00,,2013-02-28 00:51:00,
2013-02-28 01:01:00,30.0,21.0,-100.00,East,95,1.0,3.0,71,0.00,,,0.00,,2013-02-28 01:01:00,
2013-02-28 01:11:00,29.0,21.0,-100.00,ESE,115,1.0,3.0,72,0.00,,,0.00,,2013-02-28 01:11:00,
2013-02-28 01:21:00,28.0,21.0,-100.00,NE,55,1.0,3.0,73,0.00,,,0.00,,2013-02-28 01:21:00,
2013-02-28 01:32:00,28.0,21.0,-100.00,NE,35,2.0,2.0,76,0.00,,,0.00,,2013-02-28 01:32:00,
2013-02-28 01:41:00,28.0,21.0,-100.00,NW,315,1.0,1.0,76,0.00,,,0.00,,2013-02-28 01:41:00,
2013-02-28 01:51:00,27.0,21.0,-100.00,NNW,330,1.0,1.0,77,0.00,,,0.00,,2013-02-28 01:51:00,
2013-02-28 02:01:00,27.0,21.0,-100.00,NNE,25,0.0,1.0,76,0.00,,,0.00,,2013-02-28 02:01:00,
2013-02-28 02:11:00,26.0,19.0,-100.00,NNE,25,1.0,1.0,77,0.00,,,0.00,,2013-02-28 02:11:00,
2013-02-28 02:22:00,25.0,19.0,-100.00,SW,235,0.0,1.0,78,0.00,,,0.00,,2013-02-28 02:22:00,
2013-02-28 02:31:00,24.0,19.0,-100.00,East,80,0.0,1.0,81,0.00,,,0.00,,2013-02-28 02:31:00,
2013-02-28 02:41:00,24.0,19.0,-100.00,East,80,0.0,1.0,81,0.00,,,0.00,,2013-02-28 02:41:00,
2013-02-28 02:51:00,24.0,19.0,-100.00,East,80,0.0,1.0,81,0.00,,,0.00,,2013-02-28 02:51:00,
2013-02-28 03:01:00,24.0,18.0,-100.00,NE,35,3.0,4.0,77,0.00,,,0.00,,2013-02-28 03:01:00,
2013-02-28 03:11:00,24.0,19.0,-100.00,NNE,25,2.0,4.0,79,0.00,,,0.00,,2013-02-28 03:11:00,
2013-02-28 03:21:00,24.0,19.0,-100.00,North,355,1.0,4.0,80,0.00,,,0.00,,2013-02-28 03:21:00,
2013-02-28 03:31:00,24.0,19.0,-100.00,NNE,20,2.0,2.0,82,0.00,,,0.00,,2013-02-28 03:31:00,
2013-02-28 03:41:00,24.0,19.0,-100.00,NNE,20,1.0,2.0,82,0.00,,,0.00,,2013-02-28 03:41:00,
2013-02-28 03:51:00,23.0,18.0,-100.00,NNE,15,1.0,1.0,83,0.00,,,0.00,,2013-02-28 03:51:00,
2013-02-28 04:01:00,21.0,18.0,-100.00,NE,40,2.0,4.0,83,0.00,,,0.00,,2013-02-28 04:01:00,
2013-02-28 04:11:00,26.0,19.0,-100.00,NE,35,6.0,9.0,75,0.00,,,0.00,,2013-02-28 04:11:00,
2013-02-28 04:21:00,27.0,19.0,-100.00,NE,35,6.0,9.0,69,0.00,,,0.00,,2013-02-28 04:21:00,
2013-02-28 04:32:00,26.0,18.0,-100.00,NNE,20,3.0,6.0,73,0.00,,,0.00,,2013-02-28 04:32:00,
2013-02-28 04:42:00,25.0,18.0,-100.00,NNE,25,2.0,4.0,74,0.00,,,0.00,,2013-02-28 04:42:00,
2013-02-28 04:51:00,25.0,18.0,-100.00,NNE,25,2.0,4.0,74,0.00,,,0.00,,2013-02-28 04:51:00,
2013-02-28 05:01:00,24.0,18.0,-100.00,NNE,25,1.0,2.0,75,0.00,,,0.00,,2013-02-28 05:01:00,
2013-02-28 05:11:00,24.0,18.0,-100.00,North,5,0.0,2.0,76,0.00,,,0.00,,2013-02-28 05:11:00,
2013-02-28 05:22:00,23.0,16.0,-100.00,WNW,300,0.0,1.0,77,0.00,,,0.00,,2013-02-28 05:22:00,
2013-02-28 05:31:00,22.0,18.0,-100.00,NNW,345,1.0,2.0,78,0.00,,,0.00,,2013-02-28 05:31:00,
2013-02-28 05:42:00,22.0,18.0,-100.00,WNW,300,1.0,3.0,79,0.00,,,0.00,,2013-02-28 05:42:00,
2013-02-28 05:52:00,24.0,19.0,-100.00,NW,325,2.0,4.0,79,0.00,,,0.00,,2013-02-28 05:52:00,
2013-02-28 06:01:00,26.0,19.0,-100.00,NNW,340,2.0,3.0,76,0.00,,,0.00,,2013-02-28 06:01:00,
2013-02-28 06:11:00,27.0,19.0,-100.00,North,0,2.0,6.0,75,0.00,,,0.00,,2013-02-28 06:11:00,
2013-02-28 06:22:00,27.0,19.0,-100.00,North,0,1.0,6.0,74,0.00,,,0.00,,2013-02-28 06:22:00,
2013-02-28 06:32:00,27.0,19.0,-100.00,NNW,330,1.0,4.0,73,0.00,,,0.00,,2013-02-28 06:32:00,
2013-02-28 06:42:00,28.0,19.0,-100.00,NNW,340,2.0,4.0,73,0.00,,,0.00,,2013-02-28 06:42:00,
2013-02-28 06:51:00,28.0,21.0,-100.00,NNW,340,1.0,6.0,73,0.00,,,0.00,,2013-02-28 06:51:00,
2013-02-28 07:01:00,28.0,21.0,-100.00,NE,45,1.0,4.0,73,0.00,,,0.00,,2013-02-28 07:01:00,
2013-02-28 07:11:00,28.0,21.0,-100.00,North,355,1.0,6.0,73,0.00,,,0.00,,2013-02-28 07:11:00,
2013-02-28 07:21:00,29.0,21.0,-100.00,NNE,20,2.0,5.0,72,0.00,,,0.00,,2013-02-28 07:21:00,
2013-02-28 07:31:00,29.0,21.0,-100.00,NNW,330,1.0,6.0,71,0.00,,,0.00,,2013-02-28 07:31:00,
2013-02-28 07:41:00,29.0,21.0,-100.00,NNE,20,1.0,5.0,72,0.00,,,0.00,,2013-02-28 07:41:00,
2013-02-28 07:51:00,29.0,21.0,-100.00,NNE,20,4.0,7.0,70,0.00,,,0.00,,2013-02-28 07:51:00,
2013-02-28 08:01:00,30.0,21.0,-100.00,NNE,25,4.0,9.0,69,0.00,,,0.00,,2013-02-28 08:01:00,
2013-02-28 08:11:00,29.0,21.0,-100.00,NNE,30,2.0,6.0,70,0.00,,,0.00,,2013-02-28 08:11:00,
2013-02-28 08:22:00,30.0,21.0,-100.00,NNE,30,6.0,9.0,69,0.00,,,0.00,,2013-02-28 08:22:00,
2013-02-28 08:32:00,30.0,21.0,-100.00,NNE,25,4.0,8.0,68,0.00,,,0.00,,2013-02-28 08:32:00,
2013-02-28 08:42:00,30.0,21.0,-100.00,NNE,25,4.0,10.0,69,0.00,,,0.00,,2013-02-28 08:42:00,
2013-02-28 08:52:00,30.0,21.0,-100.00,North,0,2.0,6.0,68,0.00,,,0.00,,2013-02-28 08:52:00,
2013-02-28 09:03:00,30.0,21.0,-100.00,NNE,20,4.0,6.0,69,0.00,,,0.00,,2013-02-28 09:03:00,
2013-02-28 09:11:00,30.0,21.0,-100.00,NNW,335,2.0,5.0,69,0.00,,,0.00,,2013-02-28 09:11:00,
2013-02-28 09:21:00,30.0,21.0,-100.00,North,10,2.0,6.0,69,0.00,,,0.00,,2013-02-28 09:21:00,
2013-02-28 09:32:00,30.0,21.0,-100.00,North,10,1.0,6.0,69,0.00,,,0.00,,2013-02-28 09:32:00,
2013-02-28 09:42:00,29.0,21.0,-100.00,NNE,15,2.0,6.0,69,0.00,,,0.00,,2013-02-28 09:42:00,
2013-02-28 09:52:00,29.0,21.0,-100.00,North,5,2.0,7.0,70,0.00,,,0.00,,2013-02-28 09:52:00,
2013-02-28 10:01:00,29.0,21.0,-100.00,North,5,3.0,7.0,71,0.00,,,0.00,,2013-02-28 10:01:00,
2013-02-28 10:11:00,29.0,21.0,-100.00,North,5,5.0,11.0,71,0.00,,,0.00,,2013-02-28 10:11:00,
2013-02-28 10:21:00,29.0,21.0,-100.00,NNE,20,4.0,7.0,71,0.00,,,0.00,,2013-02-28 10:21:00,
2013-02-28 10:32:00,29.0,21.0,-100.00,NNE,20,6.0,11.0,70,0.00,,,0.00,,2013-02-28 10:32:00,
2013-02-28 10:42:00,29.0,21.0,-100.00,NNE,30,7.0,12.0,70,0.00,,,0.00,,2013-02-28 10:42:00,
2013-02-28 10:52:00,29.0,21.0,-100.00,NNE,15,7.0,12.0,69,0.00,,,0.00,,2013-02-28 10:52:00,
2013-02-28 11:01:00,29.0,21.0,-100.00,NNE,20,6.0,12.0,70,0.00,,,0.00,,2013-02-28 11:01:00,
2013-02-28 11:11:00,29.0,21.0,-100.00,NNE,25,4.0,8.0,71,0.00,,,0.00,,2013-02-28 11:11:00,
2013-02-28 11:21:00,29.0,21.0,-100.00,NNE,30,3.0,6.0,72,0.00,,,0.00,,2013-02-28 11:21:00,
2013-02-28 11:32:00,28.0,21.0,-100.00,North,10,4.0,8.0,73,0.00,,,0.00,,2013-02-28 11:32:00,
2013-02-28 11:42:00,28.0,21.0,-100.00,NNE,20,5.0,14.0,71,0.00,,,0.00,,2013-02-28 11:42:00,
2013-02-28 11:52:00,28.0,19.0,-100.00,North,0,7.0,12.0,71,0.00,,,0.00,,2013-02-28 11:52:00,
2013-02-28 12:01:00,28.0,19.0,-100.00,NE,35,8.0,11.0,71,0.00,,,0.00,,2013-02-28 12:01:00,
2013-02-28 12:11:00,28.0,19.0,-100.00,NNE,25,11.0,14.0,70,0.00,,,0.00,,2013-02-28 12:11:00,
2013-02-28 12:21:00,28.0,19.0,-100.00,NNE,25,7.0,11.0,71,0.00,,,0.00,,2013-02-28 12:21:00,
2013-02-28 12:32:00,28.0,21.0,-100.00,NNE,25,6.0,11.0,72,0.00,,,0.00,,2013-02-28 12:32:00,
2013-02-28 12:42:00,28.0,19.0,-100.00,NNE,30,5.0,9.0,72,0.00,,,0.00,,2013-02-28 12:42:00,
2013-02-28 12:52:00,28.0,19.0,-100.00,NNE,25,7.0,9.0,72,0.00,,,0.00,,2013-02-28 12:52:00,
2013-02-28 13:01:00,28.0,19.0,-100.00,NNE,30,9.0,13.0,71,0.00,,,0.00,,2013-02-28 13:01:00,
2013-02-28 13:11:00,28.0,19.0,-100.00,NNE,25,6.0,13.0,71,0.00,,,0.00,,2013-02-28 13:11:00,
2013-02-28 13:21:00,28.0,19.0,-100.00,NE,35,6.0,12.0,71,0.00,,,0.00,,2013-02-28 13:21:00,
2013-02-28 13:32:00,28.0,19.0,-100.00,NNE,20,6.0,12.0,72,0.00,,,0.00,,2013-02-28 13:32:00,
2013-02-28 13:42:00,27.0,19.0,-100.00,NNE,15,6.0,11.0,72,0.00,,,0.00,,2013-02-28 13:42:00,
2013-02-28 13:52:00,27.0,19.0,-100.00,NNE,30,9.0,14.0,71,0.00,,,0.00,,2013-02-28 13:52:00,
2013-02-28 14:01:00,27.0,19.0,-100.00,NNE,30,11.0,15.0,70,0.00,,,0.00,,2013-02-28 14:01:00,
2013-02-28 14:11:00,27.0,19.0,-100.00,NE,35,9.0,15.0,70,0.00,,,0.00,,2013-02-28 14:11:00,
2013-02-28 14:21:00,27.0,19.0,-100.00,NNE,30,9.0,16.0,71,0.00,,,0.00,,2013-02-28 14:21:00,
2013-02-28 14:32:00,27.0,19.0,-100.00,NNE,30,7.0,12.0,71,0.00,,,0.00,,2013-02-28 14:32:00,
2013-02-28 14:42:00,27.0,19.0,-100.00,NNE,25,7.0,11.0,70,0.00,,,0.00,,2013-02-28 14:42:00,
2013-02-28 14:52:00,27.0,19.0,-100.00,NE,35,6.0,11.0,70,0.00,,,0.00,,2013-02-28 14:52:00,
2013-02-28 15:02:00,27.0,19.0,-100.00,NNE,30,8.0,12.0,71,0.00,,,0.00,,2013-02-28 15:02:00,
2013-02-28 15:11:00,27.0,19.0,-100.00,NNE,30,7.0,11.0,71,0.00,,,0.00,,2013-02-28 15:11:00,
2013-02-28 15:21:00,27.0,19.0,-100.00,NNE,30,7.0,12.0,70,0.00,,,0.00,,2013-02-28 15:21:00,
2013-02-28 15:32:00,27.0,19.0,-100.00,NNE,25,6.0,10.0,70,0.00,,,0.00,,2013-02-28 15:32:00,
2013-02-28 15:41:00,27.0,19.0,-100.00,NNE,30,10.0,12.0,70,0.00,,,0.00,,2013-02-28 15:41:00,
2013-02-28 15:52:00,27.0,19.0,-100.00,NNE,30,7.0,14.0,70,0.00,,,0.00,,2013-02-28 15:52:00,
2013-02-28 16:01:00,27.0,19.0,-100.00,NNE,15,7.0,12.0,69,0.00,,,0.00,,2013-02-28 16:01:00,
2013-02-28 16:11:00,27.0,18.0,-100.00,NNE,30,10.0,12.0,69,0.00,,,0.00,,2013-02-28 16:11:00,
2013-02-28 16:22:00,27.0,18.0,-100.00,NNE,30,7.0,12.0,68,0.00,,,0.00,,2013-02-28 16:22:00,
2013-02-28 16:32:00,27.0,18.0,-100.00,NNE,30,10.0,13.0,68,0.00,,,0.00,,2013-02-28 16:32:00,
2013-02-28 16:42:00,27.0,18.0,-100.00,NE,35,12.0,14.0,68,0.00,,,0.00,,2013-02-28 16:42:00,
2013-02-28 16:52:00,27.0,18.0,-100.00,NNE,30,9.0,14.0,66,0.00,,,0.00,,2013-02-28 16:52:00,
2013-02-28 17:01:00,27.0,18.0,-100.00,NE,35,10.0,16.0,66,0.00,,,0.00,,2013-02-28 17:01:00,
2013-02-28 17:11:00,27.0,18.0,-100.00,NNE,30,9.0,13.0,66,0.00,,,0.00,,2013-02-28 17:11:00,
2013-02-28 17:21:00,28.0,18.0,-100.00,NNE,30,9.0,13.0,65,0.00,,,0.00,,2013-02-28 17:21:00,
2013-02-28 17:32:00,28.0,18.0,-100.00,NNE,25,9.0,15.0,64,0.00,,,0.00,,2013-02-28 17:32:00,
2013-02-28 17:42:00,28.0,18.0,-100.00,NE,35,10.0,15.0,64,0.00,,,0.00,,2013-02-28 17:42:00,
2013-02-28 17:52:00,28.0,18.0,-100.00,NE,35,9.0,13.0,64,0.00,,,0.00,,2013-02-28 17:52:00,
2013-02-28 18:02:00,29.0,18.0,-100.00,NE,50,6.0,11.0,63,0.00,,,0.00,,2013-02-28 18:02:00,
2013-02-28 18:11:00,28.0,18.0,-100.00,NE,35,9.0,12.0,63,0.00,,,0.00,,2013-02-28 18:11:00,
2013-02-28 18:22:00,28.0,18.0,-100.00,NE,40,7.0,12.0,63,0.00,,,0.00,,2013-02-28 18:22:00,
2013-02-28 18:32:00,29.0,18.0,-100.00,NNE,25,5.0,10.0,65,0.00,,,0.00,,2013-02-28 18:32:00,
2013-02-28 18:42:00,29.0,18.0,-100.00,NNE,15,4.0,12.0,65,0.00,,,0.00,,2013-02-28 18:42:00,
2013-02-28 18:52:00,28.0,18.0,-100.00,NE,35,9.0,12.0,66,0.00,,,0.00,,2013-02-28 18:52:00,
2013-02-28 19:01:00,29.0,19.0,-100.00,NNE,15,6.0,12.0,66,0.00,,,0.00,,2013-02-28 19:01:00,
2013-02-28 19:11:00,28.0,18.0,-100.00,North,0,4.0,12.0,66,0.00,,,0.00,,2013-02-28 19:11:00,
2013-02-28 19:21:00,29.0,18.0,-100.00,North,5,6.0,8.0,65,0.00,,,0.00,,2013-02-28 19:21:00,
2013-02-28 19:32:00,28.0,18.0,-100.00,NNE,30,7.0,10.0,65,0.00,,,0.00,,2013-02-28 19:32:00,
2013-02-28 19:41:00,29.0,19.0,-100.00,NE,35,9.0,11.0,66,0.00,,,0.00,,2013-02-28 19:41:00,
2013-02-28 19:51:00,29.0,18.0,-100.00,NNE,25,7.0,12.0,64,0.00,,,0.00,,2013-02-28 19:51:00,
2013-02-28 20:01:00,29.0,18.0,-100.00,NNE,30,3.0,12.0,64,0.00,,,0.00,,2013-02-28 20:01:00,
2013-02-28 20:12:00,29.0,18.0,-100.00,NNE,15,6.0,10.0,64,0.00,,,0.00,,2013-02-28 20:12:00,
2013-02-28 20:21:00,29.0,19.0,-100.00,North,0,4.0,10.0,65,0.00,,,0.00,,2013-02-28 20:21:00,
2013-02-28 20:32:00,29.0,19.0,-100.00,NNW,345,4.0,10.0,63,0.00,,,0.00,,2013-02-28 20:32:00,
2013-02-28 20:41:00,29.0,18.0,-100.00,NNE,20,6.0,12.0,64,0.00,,,0.00,,2013-02-28 20:41:00,
2013-02-28 20:52:00,29.0,19.0,-100.00,NNE,30,11.0,14.0,66,0.00,,,0.00,,2013-02-28 20:52:00,
2013-02-28 21:01:00,28.0,18.0,-100.00,NE,40,10.0,14.0,65,0.00,,,0.00,,2013-02-28 21:01:00,
2013-02-28 21:11:00,28.0,18.0,-100.00,NNE,30,9.0,12.0,65,0.00,,,0.00,,2013-02-28 21:11:00,
2013-02-28 21:22:00,28.0,18.0,-100.00,NNE,25,7.0,13.0,65,0.00,,,0.00,,2013-02-28 21:22:00,
2013-02-28 21:32:00,29.0,18.0,-100.00,NNE,30,7.0,13.0,64,0.00,,,0.00,,2013-02-28 21:32:00,
2013-02-28 21:41:00,29.0,18.0,-100.00,NE,35,7.0,11.0,65,0.00,,,0.00,,2013-02-28 21:41:00,
2013-02-28 21:51:00,28.0,18.0,-100.00,NNE,20,6.0,12.0,64,0.00,,,0.00,,2013-02-28 21:51:00,
2013-02-28 22:01:00,29.0,19.0,-100.00,NNE,30,6.0,12.0,65,0.00,,,0.00,,2013-02-28 22:01:00,
2013-02-28 22:11:00,28.0,18.0,-100.00,NNE,25,8.0,12.0,64,0.00,,,0.00,,2013-02-28 22:11:00,
2013-02-28 22:21:00,29.0,18.0,-100.00,NNE,20,4.0,13.0,65,0.00,,,0.00,,2013-02-28 22:21:00,
2013-02-28 22:32:00,28.0,18.0,-100.00,NNE,20,6.0,11.0,63,0.00,,,0.00,,2013-02-28 22:32:00,
2013-02-28 22:41:00,28.0,18.0,-100.00,NNE,30,7.0,10.0,64,0.00,,,0.00,,2013-02-28 22:41:00,
2013-02-28 22:52:00,28.0,18.0,-100.00,NNE,20,6.0,9.0,64,0.00,,,0.00,,2013-02-28 22:52:00,
2013-02-28 23:01:00,28.0,18.0,-100.00,NNE,25,4.0,10.0,63,0.00,,,0.00,,2013-02-28 23:01:00,
2013-02-28 23:11:00,28.0,18.0,-100.00,NNE,30,4.0,10.0,63,0.00,,,0.00,,2013-02-28 23:11:00,
2013-02-28 23:21:00,28.0,18.0,-100.00,North,10,4.0,7.0,62,0.00,,,0.00,,2013-02-28 23:21:00,
2013-02-28 23:31:00,28.0,18.0,-100.00,North,5,3.0,7.0,62,0.00,,,0.00,,2013-02-28 23:31:00,
2013-02-28 23:41:00,28.0,18.0,-100.00,North,10,4.0,7.0,62,0.00,,,0.00,,2013-02-28 23:41:00,
2013-02-28 23:52:00,28.0,18.0,-100.00,NNE,20,2.0,7.0,62,0.00,,,0.00,,2013-02-28 23:52:00,